createdAt,value
2018-12-19T00:02:21.511Z,28.23
2018-12-19T00:04:50.092Z,25.52
2018-12-19T00:07:18.623Z,24.05
2018-12-19T00:09:47.135Z,27.05
2018-12-19T00:12:15.696Z,29.98
2018-12-19T00:14:44.238Z,31.80
2018-12-19T00:17:12.826Z,28.90
2018-12-19T00:19:41.349Z,27.27
2018-12-19T00:22:09.832Z,26.50
2018-12-19T00:24:38.395Z,28.87
2018-12-19T00:27:06.914Z,29.10
2018-12-19T00:29:35.449Z,26.12
2018-12-19T00:32:04.035Z,28.60
2018-12-19T00:34:32.589Z,28.15
2018-12-19T00:37:01.158Z,28.80
2018-12-19T00:39:29.689Z,27.07
2018-12-19T00:41:58.285Z,31.10
2018-12-19T00:44:26.834Z,28.35
2018-12-19T00:46:55.393Z,27.07
2018-12-19T00:49:23.953Z,34.25
2018-12-19T00:51:52.585Z,30.52
2018-12-19T00:54:21.423Z,27.07
2018-12-19T00:56:49.987Z,30.02
2018-12-19T00:59:18.489Z,26.48
2018-12-19T01:01:47.059Z,26.42
2018-12-19T01:04:15.623Z,29.07
2018-12-19T01:06:44.161Z,29.07
2018-12-19T01:09:15.940Z,31.23
2018-12-19T01:11:43.310Z,28.27
2018-12-19T01:14:11.862Z,26.50
2018-12-19T01:16:40.435Z,26.85
2018-12-19T01:19:08.985Z,26.35
2018-12-19T01:21:37.651Z,27.37
2018-12-19T01:24:06.185Z,27.48
2018-12-19T01:26:34.715Z,27.82
2018-12-19T01:29:03.364Z,28.90
2018-12-19T01:31:31.945Z,26.90
2018-12-19T01:34:00.482Z,27.20
2018-12-19T01:36:29.043Z,31.82
2018-12-19T01:38:57.606Z,24.80
2018-12-19T01:41:26.172Z,26.10
2018-12-19T01:43:54.754Z,29.52
2018-12-19T01:46:23.289Z,23.83
2018-12-19T01:48:51.810Z,24.67
2018-12-19T01:51:20.506Z,27.32
2018-12-19T01:53:49.412Z,22.65
2018-12-19T01:56:17.964Z,27.82
2018-12-19T01:58:46.529Z,24.65
2018-12-19T02:01:15.085Z,29.00
2018-12-19T02:03:43.616Z,30.43
2018-12-19T02:06:12.211Z,27.85
2018-12-19T02:08:40.783Z,29.48
2018-12-19T02:11:09.391Z,28.52
2018-12-19T02:13:39.900Z,28.98
2018-12-19T02:16:08.454Z,25.48
2018-12-19T02:18:37.003Z,27.73
2018-12-19T02:21:05.532Z,29.50
2018-12-19T02:23:34.227Z,26.45
2018-12-19T02:26:02.749Z,28.62
2018-12-19T02:28:31.314Z,28.75
2018-12-19T02:30:59.874Z,29.50
2018-12-19T02:33:28.449Z,34.15
2018-12-19T02:35:57.085Z,28.42
2018-12-19T02:38:25.585Z,28.67
2018-12-19T02:40:54.161Z,31.45
2018-12-19T02:43:22.721Z,25.10
2018-12-19T02:45:51.265Z,33.28
2018-12-19T02:48:19.774Z,29.67
2018-12-19T02:50:48.311Z,29.00
2018-12-19T02:53:16.846Z,28.32
2018-12-19T02:55:45.355Z,30.20
2018-12-19T02:58:13.870Z,30.30
2018-12-19T03:00:42.490Z,30.27
2018-12-19T03:03:11.034Z,27.82
2018-12-19T03:05:39.640Z,31.10
2018-12-19T03:08:08.213Z,27.27
2018-12-19T03:10:36.843Z,28.05
2018-12-19T03:13:05.412Z,27.15
2018-12-19T03:15:34.076Z,28.45
2018-12-19T03:18:02.599Z,27.95
2018-12-19T03:20:31.228Z,29.00
2018-12-19T03:22:59.778Z,27.50
2018-12-19T03:25:28.352Z,27.25
2018-12-19T03:27:56.948Z,28.42
2018-12-19T03:30:25.541Z,30.10
2018-12-19T03:32:54.110Z,29.25
2018-12-19T03:35:22.658Z,25.48
2018-12-19T03:37:51.173Z,29.87
2018-12-19T03:40:19.731Z,28.67
2018-12-19T03:42:48.275Z,26.77
2018-12-19T03:45:16.833Z,32.25
2018-12-19T03:47:45.402Z,28.77
2018-12-19T03:50:14.155Z,27.00
2018-12-19T03:52:42.668Z,29.10
2018-12-19T03:55:11.199Z,29.95
2018-12-19T03:57:39.808Z,30.27
2018-12-19T04:00:11.914Z,31.45
2018-12-19T04:02:40.463Z,31.90
2018-12-19T04:05:09.012Z,26.00
2018-12-19T04:07:37.539Z,30.97
2018-12-19T04:10:06.501Z,31.93
2018-12-19T04:12:35.067Z,30.30
2018-12-19T04:15:03.919Z,29.20
2018-12-19T04:17:32.520Z,33.18
2018-12-19T04:20:01.071Z,29.92
2018-12-19T04:22:29.807Z,30.27
2018-12-19T04:24:58.351Z,28.65
2018-12-19T04:27:26.967Z,28.57
2018-12-19T04:29:55.745Z,25.90
2018-12-19T04:32:24.455Z,30.65
2018-12-19T04:34:53.027Z,28.83
2018-12-19T04:37:21.547Z,33.50
2018-12-19T04:39:50.080Z,24.67
2018-12-19T04:42:18.620Z,30.02
2018-12-19T04:44:47.203Z,32.15
2018-12-19T04:47:15.730Z,30.08
2018-12-19T04:49:44.349Z,29.05
2018-12-19T04:52:12.970Z,29.90
2018-12-19T04:54:41.515Z,26.77
2018-12-19T04:57:10.046Z,34.88
2018-12-19T04:59:38.621Z,30.48
2018-12-19T05:02:07.190Z,32.23
2018-12-19T05:04:35.715Z,31.20
2018-12-19T05:07:04.246Z,29.77
2018-12-19T05:09:32.830Z,27.05
2018-12-19T05:12:01.395Z,27.87
2018-12-19T05:14:30.139Z,28.52
2018-12-19T05:16:58.685Z,27.27
2018-12-19T05:19:27.243Z,28.60
2018-12-19T05:21:55.817Z,29.50
2018-12-19T05:24:24.318Z,31.80
2018-12-19T05:26:52.858Z,28.65
2018-12-19T05:29:21.458Z,30.62
2018-12-19T05:31:50.044Z,40.00
2018-12-19T05:34:18.629Z,36.20
2018-12-19T05:36:47.176Z,36.58
2018-12-19T05:39:15.741Z,32.90
2018-12-19T05:41:44.329Z,37.65
2018-12-19T05:44:12.982Z,30.62
2018-12-19T05:46:41.657Z,30.82
2018-12-19T05:49:10.195Z,29.12
2018-12-19T05:51:38.895Z,36.53
2018-12-19T05:54:07.525Z,30.43
2018-12-19T05:56:36.066Z,30.50
2018-12-19T05:59:04.640Z,26.93
2018-12-19T06:01:33.210Z,32.10
2018-12-19T06:04:01.776Z,28.00
2018-12-19T06:06:30.321Z,29.60
2018-12-19T06:08:58.900Z,33.05
2018-12-19T06:11:27.563Z,32.05
2018-12-19T06:13:56.102Z,43.87
2018-12-19T06:16:24.844Z,33.67
2018-12-19T06:18:53.437Z,29.95
2018-12-19T06:21:22.045Z,31.90
2018-12-19T06:23:50.592Z,32.80
2018-12-19T06:26:19.143Z,28.32
2018-12-19T06:28:47.698Z,34.95
2018-12-19T06:31:16.325Z,32.00
2018-12-19T06:33:45.415Z,30.35
2018-12-19T06:36:14.015Z,32.35
2018-12-19T06:38:42.559Z,31.40
2018-12-19T06:41:11.065Z,29.63
2018-12-19T06:43:39.848Z,29.02
2018-12-19T06:46:08.690Z,29.23
2018-12-19T06:48:37.233Z,29.77
2018-12-19T06:51:05.750Z,30.50
2018-12-19T06:53:34.313Z,48.78
2018-12-19T06:56:02.904Z,25.43
2018-12-19T06:58:31.637Z,31.15
2018-12-19T07:01:00.188Z,31.03
2018-12-19T07:03:28.726Z,29.33
2018-12-19T07:05:57.416Z,29.37
2018-12-19T07:08:25.980Z,35.67
2018-12-19T07:10:54.536Z,28.43
2018-12-19T07:13:23.249Z,31.10
2018-12-19T07:15:51.894Z,37.80
2018-12-19T07:18:20.496Z,30.73
2018-12-19T07:20:49.216Z,30.83
2018-12-19T07:23:17.760Z,32.43
2018-12-19T07:25:46.342Z,30.77
2018-12-19T07:28:15.006Z,33.47
2018-12-19T07:30:43.590Z,33.77
2018-12-19T07:33:12.109Z,32.87
2018-12-19T07:35:40.726Z,30.90
2018-12-19T07:38:09.293Z,31.13
2018-12-19T07:40:37.866Z,33.37
2018-12-19T07:43:06.404Z,33.87
2018-12-19T07:45:35.004Z,36.47
2018-12-19T07:48:03.743Z,31.47
2018-12-19T07:50:32.339Z,31.33
2018-12-19T07:53:01.177Z,29.97
2018-12-19T07:55:33.326Z,28.47
2018-12-19T07:58:01.911Z,31.87
2018-12-19T08:00:30.501Z,30.73
2018-12-19T08:02:59.055Z,30.33
2018-12-19T08:05:27.652Z,30.10
2018-12-19T08:07:56.254Z,32.23
2018-12-19T08:10:24.885Z,31.83
2018-12-19T08:12:54.145Z,29.70
2018-12-19T08:15:22.695Z,28.87
2018-12-19T08:17:51.235Z,27.40
2018-12-19T08:20:19.793Z,29.90
2018-12-19T08:22:48.407Z,28.23
2018-12-19T08:25:17.062Z,31.23
2018-12-19T08:27:45.602Z,30.37
2018-12-19T08:30:14.292Z,35.43
2018-12-19T08:32:42.863Z,36.97
2018-12-19T08:35:11.405Z,31.20
2018-12-19T08:37:40.003Z,26.80
2018-12-19T08:40:08.668Z,35.40
2018-12-19T08:42:37.258Z,39.17
2018-12-19T08:45:06.210Z,33.37
2018-12-19T08:47:34.826Z,36.23
2018-12-19T08:50:03.527Z,36.13
2018-12-19T08:52:32.104Z,33.07
2018-12-19T08:55:00.665Z,29.07
2018-12-19T08:57:29.212Z,30.40
2018-12-19T08:59:57.777Z,31.27
2018-12-19T09:02:26.398Z,29.60
2018-12-19T09:04:54.964Z,31.27
2018-12-19T09:07:23.525Z,32.70
2018-12-19T09:09:52.065Z,34.37
2018-12-19T09:12:20.786Z,28.90
2018-12-19T09:14:49.314Z,31.10
2018-12-19T09:17:18.239Z,28.30
2018-12-19T09:19:47.312Z,29.30
2018-12-19T09:22:16.184Z,26.40
2018-12-19T09:24:44.681Z,26.17
2018-12-19T09:27:13.247Z,29.47
2018-12-19T09:29:41.877Z,27.00
2018-12-19T09:32:10.431Z,29.70
2018-12-19T09:34:39.021Z,27.87
2018-12-19T09:37:07.631Z,27.50
2018-12-19T09:39:36.214Z,26.40
2018-12-19T09:42:04.770Z,27.80
2018-12-19T09:44:33.340Z,31.73
2018-12-19T09:47:01.958Z,31.83
2018-12-19T09:49:30.551Z,28.73
2018-12-19T09:51:59.282Z,36.60
2018-12-19T09:54:27.842Z,34.43
2018-12-19T09:56:56.426Z,30.30
2018-12-19T09:59:24.937Z,39.70
2018-12-19T10:01:53.437Z,37.03
2018-12-19T10:04:22.003Z,31.63
2018-12-19T10:06:50.583Z,29.00
2018-12-19T10:09:19.278Z,31.87
2018-12-19T10:11:47.833Z,28.70
2018-12-19T10:14:16.354Z,30.30
2018-12-19T10:16:44.923Z,35.00
2018-12-19T10:19:13.625Z,35.30
2018-12-19T10:21:42.431Z,34.03
2018-12-19T10:24:10.936Z,31.77
2018-12-19T10:26:39.665Z,30.77
2018-12-19T10:29:08.385Z,32.27
2018-12-19T10:31:36.993Z,30.33
2018-12-19T10:34:05.616Z,34.43
2018-12-19T10:36:38.891Z,33.97
2018-12-19T10:39:12.667Z,29.77
2018-12-19T10:41:41.301Z,28.60
2018-12-19T10:44:10.192Z,27.13
2018-12-19T10:46:38.873Z,30.00
2018-12-19T10:49:07.415Z,32.13
2018-12-19T10:51:36.063Z,29.60
2018-12-19T10:54:04.665Z,29.53
2018-12-19T10:56:33.200Z,31.80
2018-12-19T10:59:01.715Z,29.43
2018-12-19T11:01:30.257Z,23.57
2018-12-19T11:03:58.854Z,28.23
2018-12-19T11:06:27.443Z,26.23
2018-12-19T11:08:56.009Z,26.20
2018-12-19T11:11:24.613Z,28.73
2018-12-19T11:13:53.177Z,27.63
2018-12-19T11:16:21.767Z,27.77
2018-12-19T11:18:50.309Z,27.43
2018-12-19T11:21:18.856Z,28.17
2018-12-19T11:23:47.395Z,28.07
2018-12-19T11:26:15.940Z,26.93
2018-12-19T11:28:44.497Z,25.53
2018-12-19T11:31:13.051Z,26.67
2018-12-19T11:33:41.584Z,27.07
2018-12-19T11:36:10.249Z,26.97
2018-12-19T11:38:38.891Z,26.63
2018-12-19T11:41:07.468Z,27.73
2018-12-19T11:43:36.015Z,26.60
2018-12-19T11:46:04.697Z,28.37
2018-12-19T11:48:33.260Z,27.80
2018-12-19T11:51:01.933Z,29.57
2018-12-19T11:53:30.500Z,26.20
2018-12-19T11:55:59.036Z,27.43
2018-12-19T11:58:27.633Z,30.10
2018-12-19T12:00:56.727Z,28.13
2018-12-19T12:03:25.924Z,26.20
2018-12-19T12:05:54.463Z,28.27
2018-12-19T12:08:23.020Z,27.93
2018-12-19T12:10:51.592Z,30.47
2018-12-19T12:13:20.134Z,29.23
2018-12-19T12:15:48.650Z,28.17
2018-12-19T12:18:17.159Z,28.00
2018-12-19T12:20:45.742Z,26.03
2018-12-19T12:23:14.337Z,28.90
2018-12-19T12:25:42.916Z,26.80
2018-12-19T12:28:11.478Z,28.43
2018-12-19T12:30:40.014Z,25.80
2018-12-19T12:33:08.531Z,27.33
2018-12-19T12:35:37.425Z,28.37
2018-12-19T12:38:06.013Z,31.80
2018-12-19T12:40:34.610Z,28.00
2018-12-19T12:43:03.189Z,26.63
2018-12-19T12:45:31.779Z,30.17
2018-12-19T12:48:00.343Z,24.53
2018-12-19T12:50:28.889Z,29.13
2018-12-19T12:52:57.473Z,26.47
2018-12-19T12:55:26.134Z,30.33
2018-12-19T12:57:54.724Z,29.63
2018-12-19T13:00:23.327Z,29.27
2018-12-19T13:02:51.948Z,27.77
2018-12-19T13:05:22.505Z,36.10
2018-12-19T13:07:51.003Z,27.40
2018-12-19T13:10:19.561Z,32.70
2018-12-19T13:12:48.144Z,26.87
2018-12-19T13:15:20.827Z,27.77
2018-12-19T13:17:49.519Z,26.43
2018-12-19T13:20:18.115Z,28.50
2018-12-19T13:22:46.809Z,30.87
2018-12-19T13:25:15.364Z,33.50
2018-12-19T13:27:43.953Z,30.13
2018-12-19T13:30:12.608Z,35.27
2018-12-19T13:32:41.167Z,29.77
2018-12-19T13:35:09.736Z,30.17
2018-12-19T13:37:38.255Z,31.83
2018-12-19T13:40:07.249Z,33.20
2018-12-19T13:42:35.796Z,34.87
2018-12-19T13:45:04.905Z,32.53
2018-12-19T13:47:33.535Z,31.27
2018-12-19T13:50:02.117Z,33.13
2018-12-19T13:52:30.649Z,34.10
2018-12-19T13:54:59.198Z,36.40
2018-12-19T13:57:28.388Z,36.73
2018-12-19T13:59:57.172Z,33.67
2018-12-19T14:02:25.790Z,35.10
2018-12-19T14:04:54.340Z,32.17
2018-12-19T14:07:22.911Z,27.73
2018-12-19T14:09:52.927Z,31.60
2018-12-19T14:12:21.752Z,31.13
2018-12-19T14:14:51.261Z,35.17
2018-12-19T14:17:19.777Z,37.23
2018-12-19T14:19:48.358Z,34.63
2018-12-19T14:22:17.052Z,36.60
2018-12-19T14:24:45.579Z,40.07
2018-12-19T14:27:14.113Z,36.77
2018-12-19T14:29:42.682Z,32.80
2018-12-19T14:32:11.325Z,31.07
2018-12-19T14:34:39.851Z,31.17
2018-12-19T14:37:08.464Z,32.23
2018-12-19T14:39:36.998Z,35.78
2018-12-19T14:42:05.587Z,32.60
2018-12-19T14:44:34.235Z,34.83
2018-12-19T14:47:03.134Z,38.83
2018-12-19T14:49:31.732Z,36.20
2018-12-19T14:52:00.307Z,37.05
2018-12-19T14:54:28.901Z,37.93
2018-12-19T14:56:57.518Z,31.48
2018-12-19T14:59:26.128Z,37.45
2018-12-19T15:01:54.638Z,35.80
2018-12-19T15:04:23.174Z,36.50
2018-12-19T15:06:51.947Z,37.05
2018-12-19T15:09:20.556Z,39.42
2018-12-19T15:11:49.232Z,38.45
2018-12-19T15:14:17.781Z,35.33
2018-12-19T15:16:46.375Z,35.88
2018-12-19T15:19:15.474Z,34.30
2018-12-19T15:21:44.251Z,36.83
2018-12-19T15:24:12.865Z,35.28
2018-12-19T15:26:41.427Z,35.63
2018-12-19T15:29:10.145Z,33.23
2018-12-19T15:31:38.782Z,34.30
2018-12-19T15:34:07.302Z,34.73
2018-12-19T15:36:36.140Z,37.88
2018-12-19T15:39:07.654Z,35.68
2018-12-19T15:41:36.605Z,37.03
2018-12-19T15:44:05.161Z,41.65
2018-12-19T15:46:33.912Z,37.90
2018-12-19T15:49:02.476Z,39.75
2018-12-19T15:51:30.999Z,38.98
2018-12-19T15:53:59.508Z,40.48
2018-12-19T15:56:28.200Z,33.58
2018-12-19T15:58:56.843Z,27.30
2018-12-19T16:01:25.676Z,31.27
2018-12-19T16:03:54.346Z,31.87
2018-12-19T16:06:23.051Z,32.45
2018-12-19T16:08:51.685Z,34.13
2018-12-19T16:11:20.251Z,32.95
2018-12-19T16:13:48.990Z,32.93
2018-12-19T16:16:17.897Z,32.70
2018-12-19T16:18:46.558Z,36.53
2018-12-19T16:21:15.271Z,36.38
2018-12-19T16:23:43.924Z,34.63
2018-12-19T16:26:12.630Z,34.20
2018-12-19T16:28:41.392Z,38.15
2018-12-19T16:31:10.147Z,34.53
2018-12-19T16:33:39.095Z,37.25
2018-12-19T16:36:08.002Z,40.52
2018-12-19T16:38:37.372Z,42.93
2018-12-19T16:41:06.499Z,40.08
2018-12-19T16:43:35.085Z,39.33
2018-12-19T16:46:03.730Z,40.55
2018-12-19T16:48:32.379Z,38.85
2018-12-19T16:51:01.627Z,40.58
2018-12-19T16:53:30.323Z,44.23
2018-12-19T16:55:58.878Z,41.42
2018-12-19T16:58:27.423Z,38.48
2018-12-19T17:00:55.977Z,46.23
2018-12-19T17:03:25.099Z,36.70
2018-12-19T17:05:53.820Z,39.50
2018-12-19T17:08:22.835Z,34.30
2018-12-19T17:10:51.693Z,37.05
2018-12-19T17:13:20.406Z,36.28
2018-12-19T17:15:49.410Z,38.20
2018-12-19T17:18:18.371Z,34.88
2018-12-19T17:20:47.289Z,39.90
2018-12-19T17:23:16.078Z,41.90
2018-12-19T17:25:44.713Z,41.37
2018-12-19T17:28:13.352Z,37.28
2018-12-19T17:30:42.314Z,37.85
2018-12-19T17:33:12.025Z,39.90
2018-12-19T17:35:40.599Z,37.33
2018-12-19T17:38:09.171Z,34.80
2018-12-19T17:40:37.932Z,36.05
2018-12-19T17:43:06.604Z,36.60
2018-12-19T17:45:35.418Z,39.23
2018-12-19T17:48:04.462Z,31.62
2018-12-19T17:50:33.198Z,32.17
2018-12-19T17:53:01.741Z,40.50
2018-12-19T17:55:31.017Z,31.27
2018-12-19T17:57:59.897Z,34.58
2018-12-19T18:00:28.609Z,33.95
2018-12-19T18:02:57.490Z,30.48
2018-12-19T18:05:26.355Z,36.38
2018-12-19T18:07:55.620Z,35.15
2018-12-19T18:10:24.543Z,31.57
2018-12-19T18:12:53.322Z,32.15
2018-12-19T18:15:21.999Z,38.88
2018-12-19T18:17:50.763Z,34.18
2018-12-19T18:20:19.606Z,36.95
2018-12-19T18:22:48.253Z,39.55
2018-12-19T18:25:17.077Z,35.17
2018-12-19T18:27:45.715Z,38.73
2018-12-19T18:30:14.603Z,41.40
2018-12-19T18:32:43.536Z,36.68
2018-12-19T18:35:12.482Z,40.35
2018-12-19T18:37:41.415Z,41.35
2018-12-19T18:40:10.346Z,38.92
2018-12-19T18:42:39.143Z,38.83
2018-12-19T18:45:11.831Z,39.50
2018-12-19T18:47:40.062Z,36.33
2018-12-19T18:50:09.067Z,39.95
2018-12-19T18:52:37.713Z,36.13
2018-12-19T18:55:07.330Z,37.50
2018-12-19T18:57:36.309Z,36.85
2018-12-19T19:00:16.232Z,33.35
2018-12-19T19:02:45.123Z,35.75
2018-12-19T19:05:14.123Z,32.78
2018-12-19T19:07:42.830Z,38.45
2018-12-19T19:10:11.451Z,39.63
2018-12-19T19:12:40.204Z,40.58
2018-12-19T19:15:08.803Z,42.83
2018-12-19T19:17:37.673Z,39.20
2018-12-19T19:20:06.647Z,38.25
2018-12-19T19:22:35.422Z,40.23
2018-12-19T19:25:05.121Z,33.02
2018-12-19T19:27:34.099Z,38.40
2018-12-19T19:30:10.943Z,36.05
2018-12-19T19:32:39.652Z,36.23
2018-12-19T19:35:08.636Z,38.00
2018-12-19T19:37:37.819Z,38.17
2018-12-19T19:40:08.425Z,39.33
2018-12-19T19:42:37.036Z,35.52
2018-12-19T19:45:06.679Z,40.20
2018-12-19T19:47:35.427Z,41.02
2018-12-19T19:50:04.677Z,39.58
2018-12-19T19:52:33.362Z,44.67
2018-12-19T19:55:02.064Z,42.93
2018-12-19T19:57:30.863Z,37.00
2018-12-19T19:59:59.746Z,42.23
2018-12-19T20:02:29.085Z,40.23
2018-12-19T20:04:58.087Z,38.45
2018-12-19T20:07:26.913Z,47.10
2018-12-19T20:09:55.781Z,40.38
2018-12-19T20:12:24.544Z,46.18
2018-12-19T20:14:53.223Z,39.25
2018-12-19T20:17:26.825Z,45.63
2018-12-19T20:19:55.482Z,41.33
2018-12-19T20:22:24.093Z,43.17
2018-12-19T20:24:52.640Z,38.92
2018-12-19T20:27:21.198Z,46.42
2018-12-19T20:29:49.856Z,41.60
2018-12-19T20:32:18.548Z,45.35
2018-12-19T20:34:47.129Z,45.25
2018-12-19T20:37:15.784Z,39.75
2018-12-19T20:39:45.487Z,43.05
2018-12-19T20:42:14.979Z,42.55
2018-12-19T20:44:43.525Z,38.92
2018-12-19T20:47:12.076Z,48.02
2018-12-19T20:49:40.605Z,39.05
2018-12-19T20:52:09.263Z,50.10
2018-12-19T20:54:37.866Z,40.80
2018-12-19T20:57:06.492Z,45.67
2018-12-19T20:59:35.092Z,48.30
2018-12-19T21:02:03.857Z,46.65
2018-12-19T21:04:33.051Z,49.93
2018-12-19T21:07:01.633Z,40.60
2018-12-19T21:09:30.245Z,36.68
2018-12-19T21:11:59.280Z,43.75
2018-12-19T21:14:27.920Z,42.75
2018-12-19T21:17:01.847Z,44.23
2018-12-19T21:19:30.427Z,43.98
2018-12-19T21:21:58.963Z,41.10
2018-12-19T21:24:27.487Z,43.95
2018-12-19T21:26:56.040Z,42.38
2018-12-19T21:29:24.568Z,42.85
2018-12-19T21:31:53.171Z,42.67
2018-12-19T21:34:21.784Z,54.93
2018-12-19T21:36:50.383Z,59.20
2018-12-19T21:39:19.015Z,42.60
2018-12-19T21:41:47.536Z,41.02
2018-12-19T21:44:16.819Z,39.78
2018-12-19T21:46:45.530Z,43.23
2018-12-19T21:49:14.277Z,43.17
2018-12-19T21:51:42.880Z,43.63
2018-12-19T21:54:11.448Z,45.95
2018-12-19T21:56:39.971Z,50.33
2018-12-19T21:59:08.520Z,44.38
2018-12-19T22:01:37.279Z,47.65
2018-12-19T22:04:05.903Z,51.42
2018-12-19T22:06:34.606Z,51.25
2018-12-19T22:09:04.194Z,52.83
2018-12-19T22:11:33.020Z,51.83
2018-12-19T22:14:01.589Z,50.17
2018-12-19T22:16:35.959Z,50.83
2018-12-19T22:19:05.105Z,54.67
2018-12-19T22:21:33.794Z,50.63
2018-12-19T22:24:02.340Z,45.60
2018-12-19T22:26:31.068Z,45.65
2018-12-19T22:28:59.886Z,46.25
2018-12-19T22:31:28.587Z,50.75
2018-12-19T22:33:57.093Z,53.58
2018-12-19T22:36:25.679Z,52.10
2018-12-19T22:38:54.230Z,58.05
2018-12-19T22:41:22.874Z,55.17
2018-12-19T22:43:51.514Z,59.23
2018-12-19T22:46:20.048Z,56.25
2018-12-19T22:48:48.729Z,56.83
2018-12-19T22:51:17.500Z,53.33
2018-12-19T22:53:46.046Z,53.02
2018-12-19T22:56:14.536Z,51.83
2018-12-19T22:58:43.076Z,48.85
2018-12-19T23:01:17.084Z,49.58
2018-12-19T23:03:50.848Z,55.83
2018-12-19T23:06:20.524Z,51.73
2018-12-19T23:08:49.568Z,52.65
2018-12-19T23:11:18.373Z,53.30
2018-12-19T23:13:47.201Z,54.27
2018-12-19T23:16:15.776Z,56.83
2018-12-19T23:18:44.510Z,58.08
2018-12-19T23:21:13.114Z,52.95
2018-12-19T23:23:41.894Z,53.30
2018-12-19T23:26:10.556Z,52.88
2018-12-19T23:28:39.324Z,61.18
2018-12-19T23:31:08.056Z,62.05
2018-12-19T23:33:36.911Z,61.42
2018-12-19T23:36:05.783Z,65.03
2018-12-19T23:38:34.613Z,61.05
2018-12-19T23:41:03.183Z,68.22
2018-12-19T23:43:31.892Z,67.92
2018-12-19T23:46:00.487Z,76.87
2018-12-19T23:48:29.307Z,80.25
2018-12-19T23:50:58.013Z,74.15
2018-12-19T23:53:26.989Z,73.57
2018-12-19T23:55:55.654Z,69.40
2018-12-19T23:58:24.433Z,80.72
